NZWN/WLG METAR and TAF weather

Enter ICAO airport designator
Station Type Date Time Source
NZWN METAR 2019/04/19 11:00 UTC NOAA

NZWN 191100Z AUTO 02019KT 9999 BKN024/// 14/10 Q1030 NOSIG


Station Type Date Time Source
NZWN Decoded METAR 2019/04/19 11:00 UTC NOAA

Wellington Airport, New Zealand (NZWN) 41-20S 174-48E 8M
Apr 19, 2019 - 07:00 AM EDT / 2019.04.19 1100 UTC
Wind: from the NNE (020 degrees) at 22 MPH (19 KT):0
Visibility: greater than 7 mile(s):0
Sky conditions: mostly cloudy
Temperature: 57 F (14 C)
Dew Point: 50 F (10 C)
Relative Humidity: 76%
Pressure (altimeter): 30.42 in. Hg (1030 hPa)
ob: NZWN 191100Z AUTO 02019KT 9999 BKN024/// 14/10 Q1030 NOSIG
cycle: 11

Station Type Date Time Source
NZWN TAF 2019/04/19 12:13 UTC NOAA

TAF NZWN 191102Z 1912/2012 01015G25KT 9999 BKN025
BECMG 1921/1923 01020G35KT
TEMPO 2010/2012 5000 SHRA

Example: see airport list